テヘラン の空港の天気 - METARとTAF

メヘラーバード国際空港(テヘラン) ( OIII / THR ) - イラン テヘラン
飛行場実況気象(Metar)
観測時間01/18 13:00 IRST (01/18 09:30 UTC)
風向・風速南南西 3m/s
視程7000m
天気現象
少しの雲 雲底高度 1070m
気温9℃
湿度32%
気圧1016hPa
METAROIII 180930Z 20006KT 7000 FEW035 09/M07 Q1016 A3000 NOSIG
過去の天気等 Google飛行場航空写真 Wunderground天気予報

過去48時間のMETAR

飛行場予報(TAF)
発表時間: 1/18 08:40 IRST (1/18 05:10 UTC)
予報対象時間: 18日9時 IRST ~ 19日15時 IRST
風向・風速西南西 4m/s
視程7,000m
少しの雲 雲底高度 1,070m
19日3時 IRST ~ 19日6時 IRST に一時的に
視程4,000m
天気現象煙霧
19日11時 IRST ~ 19日12時 IRST に徐々に
風向・風速東南東 5m/s
TAF COR OIII 180510Z 1806/1912 25004MPS 7000 FEW035
TEMPO 1900/1903 4000 HZ
BECMG 1908/1909 12005MPS